Cloud Lake, Florida
Current Conditions -  °F | °C
As of 2:53 PM on Friday 31 Oct 2014 (Local Time) from KPBI Reporting Station
Thunderstorm Thunderstorm  
Wind Chill: 72°   Ceiling: 3600
Heat Index: 72°   Visibility: 4mi
Dew Point: 68°   Wind: 6mph
Humidity: 87%   Direction: 150°SSE
Pressure: 29.77"   Gusts: NA
Location:  26.6662°N, 80.0908°W
Report Text: KPBI 311853Z 15005KT 4SM R10L/2200VP6000FT TSRA BR SCT022 BKN036CB BKN050 22/20 A2977 RMK AO2 PK WND 28031/1815 WSHFT 1813 RAB15 TSB31 SLP079 VIS N-SE 1/2 OCNL LTGIC OHD-ALQDS TS OHD-ALQDS MOV E P0026 T02220200
Loading
Personal Weather Stations






























Interactive Weather Map
Tropical Storm Tracking
New forecast layout! Learn more

10-Day Weather Forecast

Advertisements
Track Severe Weather on mobile